KMSO/MSO METAR and TAF weather

Enter ICAO airport designator
Station Type Date Time Source
KMSO METAR 2020/12/05 04:53 UTC NOAA

KMSO 050453Z AUTO 00000KT 10SM CLR M07/M08 A3053 RMK AO2 SLP387 T10671078


Station Type Date Time Source
KMSO Decoded METAR 2020/12/05 04:53 UTC NOAA

MISSOULA INTERNATIONAL AIRPORT , MT, United States (KMSO) 46-55N 114-06W 975M
Dec 04, 2020 - 11:53 PM EST / 2020.12.05 0453 UTC
Wind: Calm:0
Visibility: 10 mile(s):0
Sky conditions: clear
Temperature: 19.9 F (-6.7 C)
Dew Point: 18.0 F (-7.8 C)
Relative Humidity: 91%
Pressure (altimeter): 30.53 in. Hg (1033 hPa)
ob: KMSO 050453Z AUTO 00000KT 10SM CLR M07/M08 A3053 RMK AO2 SLP387 T10671078
cycle: 5

Station Type Date Time Source
KMSO TAF 2020/12/05 06:22 UTC NOAA

TAF KMSO 050520Z 0506/0606 00000KT P6SM SKC

Example: see airport list